Time;durP1;ratioP1;P1;durP2;ratioP2;P2;SDS_P1;SDS_P2;PMS_P1;PMS_P2;Temp;Humidity;BMP_temperature;BMP_pressure;BME280_temperature;BME280_humidity;BME280_pressure;Samples;Min_cycle;Max_cycle;Signal;HPM_P1;HPM_P2
2022/12/18 00:00:48;;;;;;;20.07;11.00;;;-3.70;99.90;;;;;;5070029;28;20779;-71
2022/12/18 00:03:15;;;;;;;23.10;11.97;;;-3.70;99.90;;;;;;5086684;28;20297;-71
2022/12/18 00:05:48;;;;;;;22.07;10.53;;;-3.80;99.90;;;;;;5090472;28;20207;-71
2022/12/18 00:08:15;;;;;;;21.67;12.63;;;-3.80;99.90;;;;;;5084121;28;20208;-71
2022/12/18 00:10:44;;;;;;;20.23;11.83;;;-3.80;99.90;;;;;;5069598;28;20222;-71
2022/12/18 00:13:11;;;;;;;21.60;11.10;;;-3.80;99.90;;;;;;5069795;28;20338;-71
2022/12/18 00:15:39;;;;;;;22.53;11.87;;;-3.80;99.90;;;;;;5069455;28;20224;-71
2022/12/18 00:18:06;;;;;;;22.53;12.17;;;-3.80;99.90;;;;;;5069860;28;20257;-71
2022/12/18 00:20:37;;;;;;;25.13;13.03;;;-3.80;99.90;;;;;;5077184;28;20285;-71
2022/12/18 00:23:05;;;;;;;21.73;12.03;;;-3.80;99.90;;;;;;5089953;28;20539;-71
2022/12/18 00:25:33;;;;;;;19.37;11.27;;;-3.80;99.90;;;;;;5089499;28;20608;-71
2022/12/18 00:28:02;;;;;;;25.70;11.83;;;-3.80;99.90;;;;;;5089644;28;20211;-71
2022/12/18 00:30:29;;;;;;;19.07;11.20;;;-3.80;99.90;;;;;;5089588;28;20207;-71
2022/12/18 00:32:56;;;;;;;20.33;11.43;;;-3.90;99.90;;;;;;5089448;28;20297;-71
2022/12/18 00:35:22;;;;;;;18.50;11.50;;;-3.90;99.90;;;;;;5089748;28;20294;-71
2022/12/18 00:37:49;;;;;;;23.57;12.63;;;-3.90;99.90;;;;;;5089768;28;20287;-70
2022/12/18 00:40:16;;;;;;;23.20;12.43;;;-3.90;99.90;;;;;;5088919;28;20243;-70
2022/12/18 00:42:57;;;;;;;23.30;12.47;;;-3.90;99.90;;;;;;5089726;28;20314;-70
2022/12/18 00:45:30;;;;;;;23.27;12.17;;;-3.90;99.90;;;;;;5089310;28;20195;-70
2022/12/18 00:47:57;;;;;;;22.13;12.27;;;-3.90;99.90;;;;;;5078886;28;20235;-70
2022/12/18 00:50:25;;;;;;;23.73;12.80;;;-3.90;99.90;;;;;;5075476;28;20209;-70
2022/12/18 00:52:52;;;;;;;23.73;12.20;;;-3.90;99.90;;;;;;5089565;28;20301;-70
2022/12/18 00:55:19;;;;;;;20.23;11.30;;;-3.90;99.90;;;;;;5088782;28;20784;-70
2022/12/18 00:57:46;;;;;;;25.27;11.50;;;-3.90;99.90;;;;;;5089369;28;20289;-70
2022/12/18 01:00:16;;;;;;;22.50;12.10;;;-3.90;99.90;;;;;;5089160;28;20223;-70
2022/12/18 01:02:44;;;;;;;23.67;11.57;;;-4.00;99.90;;;;;;5086533;28;20241;-69
2022/12/18 01:05:13;;;;;;;27.40;13.07;;;-4.00;99.90;;;;;;5068580;28;20302;-69
2022/12/18 01:07:40;;;;;;;25.17;12.50;;;-4.00;99.90;;;;;;5068952;28;20652;-70
2022/12/18 01:10:08;;;;;;;22.07;11.90;;;-4.00;99.90;;;;;;5068369;28;20213;-70
2022/12/18 01:12:35;;;;;;;25.70;12.70;;;-4.00;99.90;;;;;;5078007;28;20201;-70
2022/12/18 01:15:02;;;;;;;23.40;12.10;;;-4.00;99.90;;;;;;5088530;28;20217;-69
2022/12/18 01:17:29;;;;;;;24.93;12.67;;;-4.00;99.90;;;;;;5088808;28;20264;-70
2022/12/18 01:19:57;;;;;;;22.30;11.17;;;-3.90;99.90;;;;;;5088825;28;20207;-70
2022/12/18 01:22:24;;;;;;;22.60;11.63;;;-4.00;99.90;;;;;;5088747;28;20257;-70
2022/12/18 01:24:51;;;;;;;21.70;12.23;;;-3.90;99.90;;;;;;5088178;28;20205;-70
2022/12/18 01:27:18;;;;;;;21.80;11.27;;;-4.00;99.90;;;;;;5088718;28;20714;-70
2022/12/18 01:29:45;;;;;;;22.30;11.23;;;-4.00;99.90;;;;;;5088985;28;20745;-70
2022/12/18 01:32:12;;;;;;;22.57;11.13;;;-4.00;99.90;;;;;;5088462;28;20293;-70
2022/12/18 01:34:39;;;;;;;21.20;10.93;;;-4.10;99.90;;;;;;5088774;28;20252;-70
2022/12/18 01:37:07;;;;;;;19.97;11.17;;;-4.10;99.90;;;;;;5088302;28;20256;-70
2022/12/18 01:39:35;;;;;;;22.47;11.53;;;-4.10;99.90;;;;;;5088360;28;20203;-69
2022/12/18 01:42:03;;;;;;;26.63;11.90;;;-4.10;99.90;;;;;;5088502;28;20241;-70
2022/12/18 01:45:00;;;;;;;21.77;11.40;;;-4.10;99.90;;;;;;5088183;28;20837;-70
2022/12/18 01:47:31;;;;;;;21.13;11.17;;;-4.10;99.90;;;;;;5082050;28;20318;-70
2022/12/18 01:50:00;;;;;;;25.33;12.03;;;-4.10;99.90;;;;;;5070473;28;20665;-70
2022/12/18 01:52:32;;;;;;;23.07;11.20;;;-4.10;99.90;;;;;;5088310;28;20294;-69
2022/12/18 01:55:01;;;;;;;23.20;11.50;;;-4.10;99.90;;;;;;5088015;28;20256;-70
2022/12/18 01:57:29;;;;;;;25.43;11.87;;;-4.10;99.90;;;;;;5088110;28;20208;-70
2022/12/18 02:00:01;;;;;;;20.87;11.57;;;-4.10;99.90;;;;;;5077242;28;20748;-70
2022/12/18 02:02:29;;;;;;;23.10;11.17;;;-4.10;99.90;;;;;;5067539;28;20589;-70
2022/12/18 02:04:56;;;;;;;24.13;11.93;;;-4.00;99.90;;;;;;5067759;28;20214;-70
2022/12/18 02:07:33;;;;;;;20.70;11.03;;;-4.10;99.90;;;;;;5067660;28;20290;-70
2022/12/18 02:10:04;;;;;;;21.70;10.40;;;-4.10;99.90;;;;;;5085503;28;20302;-70
2022/12/18 02:12:43;;;;;;;21.40;11.43;;;-4.10;99.90;;;;;;5088034;28;20214;-70
2022/12/18 02:15:16;;;;;;;22.40;11.37;;;-4.20;99.90;;;;;;5073159;28;20290;-70
2022/12/18 02:17:48;;;;;;;17.63;10.23;;;-4.20;99.90;;;;;;5067397;28;20710;-69
2022/12/18 02:20:21;;;;;;;23.23;11.63;;;-4.10;99.90;;;;;;5072152;28;20203;-69
2022/12/18 02:23:05;;;;;;;23.30;11.10;;;-4.20;99.90;;;;;;5087622;28;20306;-70
2022/12/18 02:25:44;;;;;;;22.80;11.37;;;-4.20;99.90;;;;;;5087749;28;20218;-69
2022/12/18 02:28:16;;;;;;;20.33;10.67;;;-4.20;99.90;;;;;;5087339;28;20317;-70
2022/12/18 02:30:45;;;;;;;21.10;10.60;;;-4.20;99.90;;;;;;5087693;28;20289;-70
2022/12/18 02:33:14;;;;;;;21.47;11.20;;;-4.20;99.90;;;;;;5087233;28;20658;-69
2022/12/18 02:35:42;;;;;;;21.27;11.33;;;-4.20;99.90;;;;;;5087546;28;20203;-70
2022/12/18 02:38:10;;;;;;;22.57;11.50;;;-4.20;99.90;;;;;;5087331;28;20217;-69
2022/12/18 02:40:38;;;;;;;25.67;12.10;;;-4.20;99.90;;;;;;5087381;28;20286;-70
2022/12/18 02:43:08;;;;;;;20.97;10.93;;;-4.20;99.90;;;;;;5087092;28;21052;-69
2022/12/18 02:45:38;;;;;;;20.77;10.63;;;-4.20;99.90;;;;;;5087658;28;20207;-69
2022/12/18 02:48:09;;;;;;;21.57;11.53;;;-4.20;99.90;;;;;;5075807;28;20318;-70
2022/12/18 02:50:41;;;;;;;20.47;10.50;;;-4.20;99.90;;;;;;5075246;28;20290;-69
2022/12/18 02:53:16;;;;;;;24.43;10.90;;;-4.20;99.90;;;;;;5087058;28;20642;-69
2022/12/18 02:55:53;;;;;;;22.43;10.97;;;-4.20;99.90;;;;;;5087014;28;20293;-69
2022/12/18 02:58:27;;;;;;;23.87;10.87;;;-4.20;99.90;;;;;;5069645;28;20298;-69
2022/12/18 03:01:02;;;;;;;21.10;10.70;;;-4.30;99.90;;;;;;5066864;28;20317;-70
2022/12/18 03:03:34;;;;;;;22.33;10.87;;;-4.30;99.90;;;;;;5067644;28;21055;-70
2022/12/18 03:06:06;;;;;;;23.70;10.93;;;-4.30;99.90;;;;;;5083745;28;20232;-70
2022/12/18 03:08:38;;;;;;;21.03;11.10;;;-4.30;99.90;;;;;;5086828;28;20205;-70
2022/12/18 03:11:09;;;;;;;23.57;11.17;;;-4.30;99.90;;;;;;5086340;28;20210;-70
2022/12/18 03:13:40;;;;;;;25.70;11.60;;;-4.20;99.90;;;;;;5087338;28;20268;-70
2022/12/18 03:16:11;;;;;;;24.10;11.20;;;-4.30;99.90;;;;;;5087090;28;20238;-69
2022/12/18 03:18:44;;;;;;;23.77;12.10;;;-4.30;99.90;;;;;;5086929;28;20825;-69
2022/12/18 03:21:12;;;;;;;21.03;11.23;;;-4.30;99.90;;;;;;5075917;28;20307;-69
2022/12/18 03:23:45;;;;;;;23.77;11.53;;;-4.30;99.90;;;;;;5070443;28;20701;-70
2022/12/18 03:26:16;;;;;;;22.47;10.13;;;-4.30;99.90;;;;;;5070604;28;20298;-70
2022/12/18 03:28:47;;;;;;;20.97;10.27;;;-4.30;99.90;;;;;;5071017;28;20235;-69
2022/12/18 03:31:17;;;;;;;20.43;9.70;;;-4.30;99.90;;;;;;5070761;28;20202;-70
2022/12/18 03:33:51;;;;;;;20.90;10.13;;;-4.30;99.90;;;;;;5071094;28;20207;-69
2022/12/18 03:36:18;;;;;;;20.57;10.77;;;-4.30;99.90;;;;;;5070978;28;20283;-70
2022/12/18 03:38:45;;;;;;;19.43;10.23;;;-4.30;99.90;;;;;;5070869;28;20577;-69
2022/12/18 03:41:19;;;;;;;24.27;10.83;;;-4.30;99.90;;;;;;5069997;28;20212;-69
2022/12/18 03:43:52;;;;;;;21.43;10.97;;;-4.30;99.90;;;;;;5070744;28;20238;-70
2022/12/18 03:46:28;;;;;;;18.70;10.40;;;-4.40;99.90;;;;;;5070502;28;20196;-69
2022/12/18 03:49:03;;;;;;;23.93;11.27;;;-4.40;99.90;;;;;;5070121;28;20195;-70
2022/12/18 03:51:36;;;;;;;20.80;10.63;;;-4.40;99.90;;;;;;5085567;28;20202;-70
2022/12/18 03:54:06;;;;;;;19.57;10.27;;;-4.40;99.90;;;;;;5090387;28;20207;-70
2022/12/18 03:56:41;;;;;;;16.13;9.17;;;-4.30;99.90;;;;;;5090587;28;20237;-70
2022/12/18 03:59:11;;;;;;;20.77;10.63;;;-4.30;99.90;;;;;;5090209;28;20226;-70
2022/12/18 04:01:43;;;;;;;23.80;11.83;;;-4.40;99.90;;;;;;5090015;28;20221;-70
2022/12/18 04:04:12;;;;;;;22.00;11.30;;;-4.40;99.90;;;;;;5090213;28;20222;-69
2022/12/18 04:06:40;;;;;;;22.90;12.00;;;-4.40;99.90;;;;;;5090410;28;20301;-70
2022/12/18 04:09:08;;;;;;;22.73;11.97;;;-4.30;99.90;;;;;;5089894;28;20234;-70
2022/12/18 04:11:35;;;;;;;20.87;11.20;;;-4.30;99.90;;;;;;5090198;28;20202;-70
2022/12/18 04:14:01;;;;;;;26.37;12.87;;;-4.30;99.90;;;;;;5090296;28;20290;-70
2022/12/18 04:16:29;;;;;;;22.93;11.83;;;-4.30;99.90;;;;;;5075571;28;20956;-69
2022/12/18 04:18:57;;;;;;;26.47;12.63;;;-4.30;99.90;;;;;;5069721;28;20207;-70
2022/12/18 04:21:24;;;;;;;24.67;12.10;;;-4.30;99.90;;;;;;5083935;28;20232;-70
2022/12/18 04:23:50;;;;;;;22.93;12.77;;;-4.30;99.90;;;;;;5089592;28;20700;-70
2022/12/18 04:26:17;;;;;;;25.13;12.67;;;-4.30;99.90;;;;;;5089734;28;20289;-70
2022/12/18 04:28:44;;;;;;;23.27;12.60;;;-4.30;99.90;;;;;;5090177;28;20482;-70
2022/12/18 04:31:11;;;;;;;27.53;13.07;;;-4.30;99.90;;;;;;5089247;28;20276;-70
2022/12/18 04:33:38;;;;;;;25.77;13.30;;;-4.30;99.90;;;;;;5089763;28;20314;-70
2022/12/18 04:36:07;;;;;;;25.80;12.20;;;-4.30;99.90;;;;;;5089582;28;20302;-72
2022/12/18 04:38:34;;;;;;;27.70;13.67;;;-4.30;99.90;;;;;;5090032;28;20620;-72
2022/12/18 04:41:01;;;;;;;26.90;13.17;;;-4.40;99.90;;;;;;5089138;28;20790;-71
2022/12/18 04:43:28;;;;;;;28.57;13.63;;;-4.40;99.90;;;;;;5089523;28;20314;-69
2022/12/18 04:46:01;;;;;;;28.47;13.80;;;-4.40;99.90;;;;;;5089557;28;20297;-71
2022/12/18 04:48:28;;;;;;;25.10;13.13;;;-4.40;99.90;;;;;;5083427;28;20266;-70
2022/12/18 04:50:55;;;;;;;30.03;14.00;;;-4.40;99.90;;;;;;5081712;28;20257;-70
2022/12/18 04:53:23;;;;;;;25.20;13.47;;;-4.40;99.90;;;;;;5089261;28;20234;-70
2022/12/18 04:55:50;;;;;;;27.60;12.87;;;-4.40;99.90;;;;;;5089264;28;20207;-70
2022/12/18 04:58:17;;;;;;;23.63;12.37;;;-4.40;99.90;;;;;;5089056;28;20767;-69
2022/12/18 05:00:44;;;;;;;27.37;14.23;;;-4.40;99.90;;;;;;5088687;28;20223;-71
2022/12/18 05:03:11;;;;;;;27.23;13.00;;;-4.30;99.90;;;;;;5088775;28;20854;-70
2022/12/18 05:05:38;;;;;;;25.70;13.33;;;-4.30;99.90;;;;;;5088798;28;20748;-70
2022/12/18 05:08:05;;;;;;;28.57;13.30;;;-4.30;99.90;;;;;;5089196;28;20595;-70
2022/12/18 05:10:33;;;;;;;28.17;14.17;;;-4.40;99.90;;;;;;5088712;28;20214;-69
2022/12/18 05:13:01;;;;;;;28.30;13.70;;;-4.30;99.90;;;;;;5088859;28;20309;-71
2022/12/18 05:15:29;;;;;;;28.90;13.47;;;-4.40;99.90;;;;;;5088762;28;20209;-69
2022/12/18 05:17:57;;;;;;;30.30;13.53;;;-4.40;99.90;;;;;;5089106;28;20513;-70
2022/12/18 05:20:24;;;;;;;26.03;12.77;;;-4.40;99.90;;;;;;5082517;28;20761;-70
2022/12/18 05:22:51;;;;;;;23.00;11.87;;;-4.40;99.90;;;;;;5070159;28;20314;-70
2022/12/18 05:25:18;;;;;;;23.07;12.13;;;-4.40;99.90;;;;;;5088853;28;20294;-70
2022/12/18 05:27:47;;;;;;;28.47;12.93;;;-4.40;99.90;;;;;;5088974;28;20203;-70
2022/12/18 05:30:15;;;;;;;23.87;12.67;;;-4.40;99.90;;;;;;5088631;28;20207;-70
2022/12/18 05:32:42;;;;;;;21.00;11.77;;;-4.40;99.90;;;;;;5089096;28;20291;-70
2022/12/18 05:35:12;;;;;;;22.83;11.70;;;-4.50;99.90;;;;;;5088486;28;20693;-70
2022/12/18 05:37:39;;;;;;;24.37;11.67;;;-4.50;99.90;;;;;;5089009;28;20286;-70
2022/12/18 05:40:07;;;;;;;22.80;12.00;;;-4.50;99.90;;;;;;5088143;28;20659;-70
2022/12/18 05:42:34;;;;;;;22.23;12.03;;;-4.50;99.90;;;;;;5088432;28;20309;-69
2022/12/18 05:45:03;;;;;;;23.00;11.33;;;-4.50;99.90;;;;;;5087973;28;20575;-70
2022/12/18 05:47:30;;;;;;;24.60;12.70;;;-4.50;99.90;;;;;;5067638;28;20800;-71
2022/12/18 05:49:57;;;;;;;24.37;12.43;;;-4.50;99.90;;;;;;5070776;28;20283;-71
2022/12/18 05:52:24;;;;;;;26.27;12.83;;;-4.50;99.90;;;;;;5088382;28;20245;-71
2022/12/18 05:54:51;;;;;;;27.53;13.40;;;-4.50;99.90;;;;;;5087827;28;20198;-71
2022/12/18 05:57:18;;;;;;;24.50;13.33;;;-4.50;99.90;;;;;;5087848;28;20203;-69
2022/12/18 05:59:45;;;;;;;24.60;12.93;;;-4.50;99.90;;;;;;5088146;28;20233;-70
2022/12/18 06:02:13;;;;;;;23.60;12.27;;;-4.40;99.90;;;;;;5088062;28;20207;-69
2022/12/18 06:04:40;;;;;;;24.90;12.90;;;-4.40;99.90;;;;;;5088180;28;20298;-71
2022/12/18 06:07:07;;;;;;;25.50;12.97;;;-4.40;99.90;;;;;;5087752;28;20630;-70
2022/12/18 06:09:34;;;;;;;24.67;12.73;;;-4.40;99.90;;;;;;5068253;28;20571;-70
2022/12/18 06:12:00;;;;;;;21.27;11.30;;;-4.40;99.90;;;;;;5067612;28;20247;-70
2022/12/18 06:14:28;;;;;;;22.00;11.17;;;-4.50;99.90;;;;;;5067898;28;20298;-69
2022/12/18 06:16:55;;;;;;;22.30;11.90;;;-4.40;99.90;;;;;;5067886;28;20199;-72
2022/12/18 06:19:23;;;;;;;20.13;11.00;;;-4.40;99.90;;;;;;5067240;28;20246;-71
2022/12/18 06:21:51;;;;;;;25.30;12.20;;;-4.40;99.90;;;;;;5085637;28;20210;-71
2022/12/18 06:24:18;;;;;;;25.13;13.73;;;-4.40;99.90;;;;;;5073648;28;20324;-70
2022/12/18 06:26:44;;;;;;;21.93;12.27;;;-4.40;99.90;;;;;;5067542;28;20284;-70
2022/12/18 06:29:11;;;;;;;22.33;12.60;;;-4.40;99.90;;;;;;5067065;28;20614;-70
2022/12/18 06:31:38;;;;;;;20.97;11.87;;;-4.50;99.90;;;;;;5067498;28;20290;-72
2022/12/18 06:34:05;;;;;;;22.63;10.80;;;-4.40;99.90;;;;;;5067307;28;20293;-70
2022/12/18 06:36:34;;;;;;;19.67;10.77;;;-4.50;99.90;;;;;;5067187;28;20297;-70
2022/12/18 06:39:01;;;;;;;19.50;11.00;;;-4.50;99.90;;;;;;5067037;28;20715;-71
2022/12/18 06:41:28;;;;;;;17.03;10.27;;;-4.50;99.90;;;;;;5080362;28;20202;-70
2022/12/18 06:43:54;;;;;;;20.30;10.97;;;-4.50;99.90;;;;;;5087246;28;20226;-70
2022/12/18 06:46:21;;;;;;;15.10;9.83;;;-4.50;99.90;;;;;;5087383;28;20302;-71
2022/12/18 06:48:50;;;;;;;18.47;10.40;;;-4.60;99.90;;;;;;5069728;28;20314;-71
2022/12/18 06:51:19;;;;;;;17.50;9.87;;;-4.50;99.90;;;;;;5085338;28;20207;-70
2022/12/18 06:53:47;;;;;;;14.60;8.97;;;-4.50;99.90;;;;;;5087437;28;20607;-70
2022/12/18 06:56:14;;;;;;;14.17;9.03;;;-4.60;99.90;;;;;;5092686;28;20202;-70
2022/12/18 06:58:41;;;;;;;17.20;9.47;;;-4.60;99.90;;;;;;5094069;28;20209;-70
2022/12/18 07:01:11;;;;;;;15.13;9.10;;;-4.60;99.90;;;;;;5093976;28;20232;-70
2022/12/18 07:03:38;;;;;;;14.40;9.47;;;-4.60;99.90;;;;;;5093065;28;20230;-70
2022/12/18 07:06:05;;;;;;;15.50;9.83;;;-4.60;99.90;;;;;;5073842;28;20207;-70
2022/12/18 07:08:33;;;;;;;15.03;9.33;;;-4.60;99.90;;;;;;5073893;28;20213;-70
2022/12/18 07:11:04;;;;;;;13.97;8.90;;;-4.60;99.90;;;;;;5073252;28;20298;-69
2022/12/18 07:13:31;;;;;;;16.77;9.67;;;-4.60;99.90;;;;;;5073547;28;20230;-70
2022/12/18 07:16:05;;;;;;;16.20;9.60;;;-4.60;99.90;;;;;;5073725;28;20294;-70
2022/12/18 07:18:32;;;;;;;14.40;9.37;;;-4.60;99.90;;;;;;5073782;28;20760;-70
2022/12/18 07:20:59;;;;;;;17.60;9.60;;;-4.60;99.90;;;;;;5084845;28;20293;-71
2022/12/18 07:23:25;;;;;;;17.33;10.20;;;-4.60;99.90;;;;;;5093730;28;20252;-70
2022/12/18 07:25:52;;;;;;;17.37;9.50;;;-4.60;99.90;;;;;;5093784;28;20294;-71
2022/12/18 07:28:21;;;;;;;17.70;9.47;;;-4.60;99.90;;;;;;5093842;28;20253;-71
2022/12/18 07:30:47;;;;;;;20.53;10.00;;;-4.60;99.90;;;;;;5093876;28;20306;-70
2022/12/18 07:33:14;;;;;;;15.67;9.70;;;-4.60;99.90;;;;;;5093893;28;20226;-70
2022/12/18 07:35:42;;;;;;;20.53;10.67;;;-4.60;99.90;;;;;;5093776;28;20310;-70
2022/12/18 07:38:09;;;;;;;16.37;9.67;;;-4.60;99.90;;;;;;5093438;28;20206;-71
2022/12/18 07:40:36;;;;;;;17.30;9.47;;;-4.60;99.90;;;;;;5093621;28;20198;-69
2022/12/18 07:43:02;;;;;;;18.43;9.97;;;-4.60;99.90;;;;;;5093731;28;20297;-70
2022/12/18 07:45:34;;;;;;;19.37;10.60;;;-4.60;99.90;;;;;;5093297;28;20754;-70
2022/12/18 07:48:01;;;;;;;20.13;10.67;;;-4.60;99.90;;;;;;5082599;28;20271;-70
2022/12/18 07:50:28;;;;;;;15.10;9.67;;;-4.60;99.90;;;;;;5073262;28;20678;-71
2022/12/18 07:52:54;;;;;;;18.40;10.47;;;-4.50;99.90;;;;;;5073300;28;20207;-70
2022/12/18 07:55:21;;;;;;;17.53;10.13;;;-4.50;99.90;;;;;;5073313;28;20799;-70
2022/12/18 07:57:48;;;;;;;20.43;10.87;;;-4.50;99.90;;;;;;5073050;28;20243;-70
2022/12/18 08:00:16;;;;;;;18.43;10.97;;;-4.50;99.90;;;;;;5076936;28;20687;-69
2022/12/18 08:02:44;;;;;;;18.33;10.80;;;-4.50;99.90;;;;;;5093735;28;20577;-70
2022/12/18 08:05:11;;;;;;;20.77;11.47;;;-4.50;99.90;;;;;;5093503;28;20333;-70
2022/12/18 08:07:38;;;;;;;24.90;12.40;;;-4.50;99.90;;;;;;5090333;28;20298;-69
2022/12/18 08:10:06;;;;;;;24.73;12.87;;;-4.40;99.90;;;;;;5089683;28;20217;-70
2022/12/18 08:12:33;;;;;;;26.10;13.33;;;-4.40;99.90;;;;;;5090243;28;20285;-70
2022/12/18 08:15:00;;;;;;;26.70;13.37;;;-4.40;99.90;;;;;;5090141;28;20242;-69
2022/12/18 08:17:27;;;;;;;28.23;14.67;;;-4.40;99.90;;;;;;5090062;28;20631;-70
2022/12/18 08:19:55;;;;;;;29.73;14.07;;;-4.40;99.90;;;;;;5088240;28;20692;-70
2022/12/18 08:22:22;;;;;;;29.93;14.90;;;-4.40;99.90;;;;;;5069793;28;20210;-69
2022/12/18 08:24:49;;;;;;;29.13;14.47;;;-4.30;99.90;;;;;;5087631;28;20318;-70
2022/12/18 08:27:16;;;;;;;29.50;14.80;;;-4.40;99.90;;;;;;5089861;28;20299;-70
2022/12/18 08:29:42;;;;;;;30.63;14.93;;;-4.40;99.90;;;;;;5090092;28;20293;-70
2022/12/18 08:32:10;;;;;;;31.20;14.83;;;-4.40;99.90;;;;;;5089764;28;20286;-70
2022/12/18 08:34:37;;;;;;;27.97;13.57;;;-4.30;99.90;;;;;;5089590;28;20203;-70
2022/12/18 08:37:06;;;;;;;26.13;14.40;;;-4.30;99.90;;;;;;5089606;28;20805;-70
2022/12/18 08:39:34;;;;;;;31.67;19.67;;;-4.30;99.90;;;;;;5088523;28;20519;-70
2022/12/18 08:44:45;;;;;;;23.57;13.13;;;-4.30;99.90;;;;;;5069227;28;20356;-70
2022/12/18 08:47:12;;;;;;;25.80;12.93;;;-4.20;99.90;;;;;;5068306;28;20231;-70
2022/12/18 08:49:39;;;;;;;23.97;12.40;;;-4.20;99.90;;;;;;5069205;28;20245;-70
2022/12/18 08:52:07;;;;;;;20.43;11.47;;;-4.20;99.90;;;;;;5069103;28;20385;-70
2022/12/18 08:54:34;;;;;;;17.07;10.20;;;-4.20;99.90;;;;;;5068613;28;20298;-69
2022/12/18 08:57:01;;;;;;;19.37;10.13;;;-4.20;99.90;;;;;;5077551;28;20306;-70
2022/12/18 08:59:30;;;;;;;20.00;10.27;;;-4.20;99.90;;;;;;5088997;28;20310;-70
2022/12/18 09:01:57;;;;;;;17.43;10.33;;;-4.20;99.90;;;;;;5088883;28;20294;-70
2022/12/18 09:04:24;;;;;;;21.90;11.57;;;-4.20;99.90;;;;;;5089039;28;20234;-70
2022/12/18 09:06:51;;;;;;;19.80;10.70;;;-4.20;99.90;;;;;;5089074;28;20309;-69
2022/12/18 09:09:19;;;;;;;18.53;10.80;;;-4.20;99.90;;;;;;5088529;28;20321;-72
2022/12/18 09:11:46;;;;;;;20.13;10.57;;;-4.20;99.90;;;;;;5088804;28;20207;-70
2022/12/18 09:14:13;;;;;;;18.03;10.93;;;-4.20;99.90;;;;;;5088673;28;20302;-70
2022/12/18 09:16:40;;;;;;;19.07;10.70;;;-4.20;99.90;;;;;;5088813;28;20285;-70
2022/12/18 09:19:07;;;;;;;15.50;9.80;;;-4.20;99.90;;;;;;5087660;28;20297;-70
2022/12/18 09:21:35;;;;;;;20.10;10.67;;;-4.20;99.90;;;;;;5088885;28;20211;-70
2022/12/18 09:24:02;;;;;;;18.37;10.67;;;-4.20;99.90;;;;;;5086973;28;20227;-71
2022/12/18 09:26:30;;;;;;;16.53;10.13;;;-4.20;99.90;;;;;;5088766;28;20290;-70
2022/12/18 09:28:57;;;;;;;19.30;11.40;;;-4.20;99.90;;;;;;5088572;28;20242;-71
2022/12/18 09:31:25;;;;;;;17.47;10.30;;;-4.20;99.90;;;;;;5077081;28;20212;-70
2022/12/18 09:33:52;;;;;;;16.93;10.30;;;-4.20;99.90;;;;;;5068212;28;20207;-70
2022/12/18 09:36:19;;;;;;;17.57;9.97;;;-4.20;99.90;;;;;;5068491;28;20809;-71
2022/12/18 09:38:46;;;;;;;15.80;10.37;;;-4.10;99.90;;;;;;5076226;28;20639;-70
2022/12/18 09:41:43;;;;;;;17.07;10.53;;;-4.10;99.90;;;;;;5088066;28;20679;-70
2022/12/18 09:44:23;;;;;;;21.13;10.80;;;-4.10;99.90;;;;;;5088541;28;20229;-70
2022/12/18 09:46:55;;;;;;;18.70;10.70;;;-4.10;99.90;;;;;;5087535;28;20277;-70
2022/12/18 09:49:26;;;;;;;20.73;11.33;;;-4.10;99.90;;;;;;5068017;28;20310;-70
2022/12/18 09:51:58;;;;;;;17.33;10.13;;;-4.00;99.90;;;;;;5068440;28;20240;-70
2022/12/18 09:54:31;;;;;;;16.67;10.50;;;-4.00;99.90;;;;;;5085746;28;20285;-69
2022/12/18 09:56:59;;;;;;;18.07;9.87;;;-4.00;99.90;;;;;;5088351;28;20202;-70
2022/12/18 09:59:32;;;;;;;19.20;10.50;;;-4.00;99.90;;;;;;5087979;28;20272;-71
2022/12/18 10:01:59;;;;;;;20.43;10.57;;;-4.00;99.90;;;;;;5088147;28;20305;-70
2022/12/18 10:04:30;;;;;;;18.53;10.33;;;-4.00;99.90;;;;;;5088095;28;20238;-70
2022/12/18 10:07:03;;;;;;;18.63;10.53;;;-3.90;99.90;;;;;;5088240;28;20281;-70
2022/12/18 10:09:38;;;;;;;21.83;11.17;;;-3.90;99.90;;;;;;5087951;28;20203;-70
2022/12/18 10:12:13;;;;;;;25.03;12.43;;;-3.90;99.90;;;;;;5087931;28;20294;-70
2022/12/18 10:14:48;;;;;;;23.00;12.50;;;-3.90;99.90;;;;;;5088237;28;20284;-69
2022/12/18 10:17:27;;;;;;;23.10;12.33;;;-3.90;99.90;;;;;;5087783;28;20230;-70
2022/12/18 10:19:57;;;;;;;25.40;12.97;;;-3.90;99.90;;;;;;5085915;28;20222;-70
2022/12/18 10:22:38;;;;;;;23.50;11.83;;;-3.80;99.90;;;;;;5067747;28;20306;-70
2022/12/18 10:25:20;;;;;;;22.30;12.37;;;-3.80;99.90;;;;;;5068558;28;20231;-70
2022/12/18 10:27:49;;;;;;;22.20;12.27;;;-3.80;99.90;;;;;;5087655;28;20289;-70
2022/12/18 10:30:18;;;;;;;19.77;11.77;;;-3.80;99.90;;;;;;5087278;28;20291;-69
2022/12/18 10:32:45;;;;;;;25.43;12.80;;;-3.70;99.90;;;;;;5087278;28;20696;-70
2022/12/18 10:35:19;;;;;;;21.33;11.17;;;-3.70;99.90;;;;;;5087416;28;20209;-69
2022/12/18 10:38:06;;;;;;;22.33;12.80;;;-3.60;99.90;;;;;;5087506;28;20202;-70
2022/12/18 10:40:33;;;;;;;22.13;12.03;;;-3.60;99.90;;;;;;5087557;28;20316;-70
2022/12/18 10:43:14;;;;;;;25.40;12.70;;;-3.60;99.90;;;;;;5087639;28;20285;-70
2022/12/18 10:45:41;;;;;;;20.53;12.23;;;-3.60;99.90;;;;;;5086969;28;20284;-70
2022/12/18 10:48:20;;;;;;;22.40;12.37;;;-3.60;99.90;;;;;;5075206;28;20319;-70
2022/12/18 10:50:51;;;;;;;22.63;12.80;;;-3.50;99.90;;;;;;5086028;28;20289;-70
2022/12/18 10:53:22;;;;;;;22.57;12.03;;;-3.50;99.90;;;;;;5087129;28;20198;-70
2022/12/18 10:55:49;;;;;;;19.53;11.53;;;-3.50;99.90;;;;;;5087237;28;20195;-69
2022/12/18 10:58:24;;;;;;;20.90;11.53;;;-3.50;99.90;;;;;;5087091;28;20204;-70
2022/12/18 11:01:11;;;;;;;20.70;11.07;;;-3.50;99.90;;;;;;5087057;28;20222;-70
2022/12/18 11:03:40;;;;;;;15.97;9.90;;;-3.50;99.90;;;;;;5087361;28;20208;-70
2022/12/18 11:06:09;;;;;;;18.63;11.07;;;-3.50;99.90;;;;;;5087401;28;20319;-70
2022/12/18 11:08:37;;;;;;;16.80;9.93;;;-3.50;99.90;;;;;;5087319;28;20293;-70
2022/12/18 11:11:16;;;;;;;12.90;9.63;;;-3.50;99.90;;;;;;5086765;28;20781;-70
2022/12/18 11:14:02;;;;;;;14.53;9.10;;;-3.50;99.90;;;;;;5087268;28;20214;-70
2022/12/18 11:16:32;;;;;;;13.87;9.07;;;-3.50;99.90;;;;;;5086851;28;20231;-70
2022/12/18 11:19:14;;;;;;;13.87;8.97;;;-3.60;99.90;;;;;;5087229;28;20628;-70
2022/12/18 11:21:42;;;;;;;13.70;8.63;;;-3.50;99.90;;;;;;5087000;28;20207;-70
2022/12/18 11:24:20;;;;;;;15.47;9.73;;;-3.60;99.90;;;;;;5085574;28;20215;-70
2022/12/18 11:26:47;;;;;;;14.17;8.67;;;-3.60;99.90;;;;;;5086938;28;20199;-70
2022/12/18 11:29:23;;;;;;;11.67;7.93;;;-3.60;99.90;;;;;;5087104;28;20276;-70
2022/12/18 11:31:50;;;;;;;12.73;8.13;;;-3.50;99.90;;;;;;5086832;28;20745;-70
2022/12/18 11:34:23;;;;;;;15.37;9.23;;;-3.60;99.90;;;;;;5081998;28;20287;-69
2022/12/18 11:36:50;;;;;;;14.67;8.47;;;-3.50;99.90;;;;;;5066450;28;20224;-70
2022/12/18 11:39:21;;;;;;;12.80;9.03;;;-3.50;99.90;;;;;;5066539;28;20637;-70
2022/12/18 11:42:11;;;;;;;13.80;9.00;;;-3.50;99.90;;;;;;5067515;28;20722;-70
2022/12/18 11:44:46;;;;;;;15.23;8.50;;;-3.50;99.90;;;;;;5070363;28;20219;-72
2022/12/18 11:47:22;;;;;;;13.33;8.30;;;-3.50;99.90;;;;;;5078440;28;20353;-70
2022/12/18 11:49:51;;;;;;;15.33;9.10;;;-3.50;99.90;;;;;;5090454;28;20614;-70
2022/12/18 11:52:22;;;;;;;14.70;9.60;;;-3.50;99.90;;;;;;5090587;28;20287;-70
2022/12/18 11:54:53;;;;;;;14.27;9.13;;;-3.50;99.90;;;;;;5090585;28;20528;-70
2022/12/18 11:57:33;;;;;;;13.37;9.67;;;-3.50;99.90;;;;;;5090515;28;20202;-70
2022/12/18 12:00:10;;;;;;;17.40;8.87;;;-3.40;99.90;;;;;;5090205;28;20222;-70
2022/12/18 12:02:58;;;;;;;13.03;8.67;;;-3.40;99.90;;;;;;5090596;28;20195;-70
2022/12/18 12:05:38;;;;;;;16.03;10.33;;;-3.40;99.90;;;;;;5090387;28;20230;-71
2022/12/18 12:08:12;;;;;;;16.40;9.23;;;-3.40;99.90;;;;;;5090391;28;20284;-70
2022/12/18 12:10:49;;;;;;;16.07;9.67;;;-3.40;99.90;;;;;;5089936;28;20195;-71
2022/12/18 12:13:28;;;;;;;18.20;9.93;;;-3.30;99.90;;;;;;5089965;28;20259;-70
2022/12/18 12:16:07;;;;;;;14.83;9.57;;;-3.30;99.90;;;;;;5090208;28;20568;-70
2022/12/18 12:18:47;;;;;;;15.23;9.27;;;-3.30;99.90;;;;;;5089936;28;20216;-70
2022/12/18 12:21:24;;;;;;;15.47;9.43;;;-3.30;99.90;;;;;;5069553;28;20693;-70
2022/12/18 12:23:57;;;;;;;15.20;9.47;;;-3.30;99.90;;;;;;5079992;28;20285;-70
2022/12/18 12:26:31;;;;;;;15.60;9.73;;;-3.30;99.90;;;;;;5089961;28;20215;-70
2022/12/18 12:29:06;;;;;;;15.87;9.47;;;-3.30;99.90;;;;;;5069779;28;20678;-70
2022/12/18 12:31:58;;;;;;;17.77;9.87;;;-3.30;99.90;;;;;;5083093;28;20281;-70
2022/12/18 12:34:30;;;;;;;14.13;9.60;;;-3.30;99.90;;;;;;5089912;28;20230;-70
2022/12/18 12:37:12;;;;;;;11.57;8.83;;;-3.20;99.90;;;;;;5089924;28;20281;-72
2022/12/18 12:39:43;;;;;;;14.03;9.47;;;-3.20;99.90;;;;;;5089793;28;20282;-70
2022/12/18 12:45:07;;;;;;;13.67;9.07;;;-3.20;99.90;;;;;;5089498;28;20676;-70
2022/12/18 12:47:41;;;;;;;14.97;8.93;;;-3.20;99.90;;;;;;5082216;28;20318;-70